sensor_id;sensor_type;location;lat;lon;timestamp;P1;durP1;ratioP1;P2;durP2;ratioP2
79261;SDS011;68699;48.220;16.358;2024-01-10T00:01:59;38.80;;;23.77;;
79261;SDS011;68699;48.220;16.358;2024-01-10T00:04:25;40.33;;;23.00;;
79261;SDS011;68699;48.220;16.358;2024-01-10T00:06:51;39.90;;;23.30;;
79261;SDS011;68699;48.220;16.358;2024-01-10T00:09:17;40.53;;;23.70;;
79261;SDS011;68699;48.220;16.358;2024-01-10T00:11:43;41.13;;;22.97;;
79261;SDS011;68699;48.220;16.358;2024-01-10T00:14:09;44.97;;;24.33;;
79261;SDS011;68699;48.220;16.358;2024-01-10T00:16:35;42.57;;;23.20;;
79261;SDS011;68699;48.220;16.358;2024-01-10T00:19:01;42.83;;;24.10;;
79261;SDS011;68699;48.220;16.358;2024-01-10T00:21:28;42.60;;;24.87;;
79261;SDS011;68699;48.220;16.358;2024-01-10T00:23:54;45.07;;;23.23;;
79261;SDS011;68699;48.220;16.358;2024-01-10T00:26:20;42.27;;;23.93;;
79261;SDS011;68699;48.220;16.358;2024-01-10T00:28:46;38.30;;;23.00;;
79261;SDS011;68699;48.220;16.358;2024-01-10T00:31:12;41.93;;;24.17;;
79261;SDS011;68699;48.220;16.358;2024-01-10T00:33:39;39.97;;;24.10;;
79261;SDS011;68699;48.220;16.358;2024-01-10T00:36:05;44.97;;;24.50;;
79261;SDS011;68699;48.220;16.358;2024-01-10T00:38:32;41.67;;;23.73;;
79261;SDS011;68699;48.220;16.358;2024-01-10T00:40:58;40.40;;;23.10;;
79261;SDS011;68699;48.220;16.358;2024-01-10T00:43:24;44.40;;;24.27;;
79261;SDS011;68699;48.220;16.358;2024-01-10T00:45:51;42.00;;;24.50;;
79261;SDS011;68699;48.220;16.358;2024-01-10T00:48:17;44.17;;;24.20;;
79261;SDS011;68699;48.220;16.358;2024-01-10T00:51:01;45.80;;;24.40;;
79261;SDS011;68699;48.220;16.358;2024-01-10T00:53:34;43.00;;;23.90;;
79261;SDS011;68699;48.220;16.358;2024-01-10T00:56:00;42.43;;;23.70;;
79261;SDS011;68699;48.220;16.358;2024-01-10T00:58:26;43.10;;;24.63;;
79261;SDS011;68699;48.220;16.358;2024-01-10T01:00:53;37.83;;;23.50;;
79261;SDS011;68699;48.220;16.358;2024-01-10T01:03:22;46.20;;;25.67;;
79261;SDS011;68699;48.220;16.358;2024-01-10T01:05:48;41.27;;;23.10;;
79261;SDS011;68699;48.220;16.358;2024-01-10T01:08:15;43.57;;;23.70;;
79261;SDS011;68699;48.220;16.358;2024-01-10T01:10:41;44.70;;;23.70;;
79261;SDS011;68699;48.220;16.358;2024-01-10T01:13:07;44.10;;;24.07;;
79261;SDS011;68699;48.220;16.358;2024-01-10T01:15:34;43.37;;;25.40;;
79261;SDS011;68699;48.220;16.358;2024-01-10T01:18:00;42.83;;;25.33;;
79261;SDS011;68699;48.220;16.358;2024-01-10T01:20:27;44.47;;;25.33;;
79261;SDS011;68699;48.220;16.358;2024-01-10T01:22:53;42.37;;;25.93;;
79261;SDS011;68699;48.220;16.358;2024-01-10T01:25:21;42.13;;;25.17;;
79261;SDS011;68699;48.220;16.358;2024-01-10T01:27:47;44.10;;;24.60;;
79261;SDS011;68699;48.220;16.358;2024-01-10T01:30:14;46.17;;;26.07;;
79261;SDS011;68699;48.220;16.358;2024-01-10T01:32:40;46.50;;;25.43;;
79261;SDS011;68699;48.220;16.358;2024-01-10T01:35:06;40.43;;;25.43;;
79261;SDS011;68699;48.220;16.358;2024-01-10T01:37:32;44.37;;;24.63;;
79261;SDS011;68699;48.220;16.358;2024-01-10T01:39:59;44.77;;;24.93;;
79261;SDS011;68699;48.220;16.358;2024-01-10T01:42:25;44.27;;;24.93;;
79261;SDS011;68699;48.220;16.358;2024-01-10T01:44:51;45.53;;;26.17;;
79261;SDS011;68699;48.220;16.358;2024-01-10T01:47:18;45.13;;;26.13;;
79261;SDS011;68699;48.220;16.358;2024-01-10T01:49:44;44.33;;;25.80;;
79261;SDS011;68699;48.220;16.358;2024-01-10T01:52:11;48.37;;;26.37;;
79261;SDS011;68699;48.220;16.358;2024-01-10T01:54:37;48.37;;;26.70;;
79261;SDS011;68699;48.220;16.358;2024-01-10T01:59:50;45.37;;;26.33;;
79261;SDS011;68699;48.220;16.358;2024-01-10T02:02:16;48.40;;;26.40;;
79261;SDS011;68699;48.220;16.358;2024-01-10T02:04:42;47.33;;;27.03;;
79261;SDS011;68699;48.220;16.358;2024-01-10T02:07:08;44.60;;;26.00;;
79261;SDS011;68699;48.220;16.358;2024-01-10T02:09:34;49.70;;;28.57;;
79261;SDS011;68699;48.220;16.358;2024-01-10T02:12:00;49.97;;;27.37;;
79261;SDS011;68699;48.220;16.358;2024-01-10T02:14:26;45.40;;;27.60;;
79261;SDS011;68699;48.220;16.358;2024-01-10T02:16:52;45.30;;;26.50;;
79261;SDS011;68699;48.220;16.358;2024-01-10T02:19:20;49.80;;;28.90;;
79261;SDS011;68699;48.220;16.358;2024-01-10T02:21:46;47.40;;;26.87;;
79261;SDS011;68699;48.220;16.358;2024-01-10T02:24:12;50.00;;;27.50;;
79261;SDS011;68699;48.220;16.358;2024-01-10T02:26:39;48.17;;;26.90;;
79261;SDS011;68699;48.220;16.358;2024-01-10T02:29:05;51.13;;;28.33;;
79261;SDS011;68699;48.220;16.358;2024-01-10T02:31:31;45.00;;;26.60;;
79261;SDS011;68699;48.220;16.358;2024-01-10T02:33:57;45.53;;;26.70;;
79261;SDS011;68699;48.220;16.358;2024-01-10T02:36:23;48.60;;;27.53;;
79261;SDS011;68699;48.220;16.358;2024-01-10T02:38:49;49.57;;;27.60;;
79261;SDS011;68699;48.220;16.358;2024-01-10T02:41:15;50.33;;;27.43;;
79261;SDS011;68699;48.220;16.358;2024-01-10T02:43:41;52.97;;;28.43;;
79261;SDS011;68699;48.220;16.358;2024-01-10T02:46:07;47.07;;;26.93;;
79261;SDS011;68699;48.220;16.358;2024-01-10T02:48:33;49.90;;;27.20;;
79261;SDS011;68699;48.220;16.358;2024-01-10T02:50:59;56.30;;;28.37;;
79261;SDS011;68699;48.220;16.358;2024-01-10T02:53:25;46.93;;;27.43;;
79261;SDS011;68699;48.220;16.358;2024-01-10T02:55:51;51.37;;;27.33;;
79261;SDS011;68699;48.220;16.358;2024-01-10T02:58:17;51.77;;;27.30;;
79261;SDS011;68699;48.220;16.358;2024-01-10T03:00:43;54.47;;;28.53;;
79261;SDS011;68699;48.220;16.358;2024-01-10T03:03:09;52.60;;;29.47;;
79261;SDS011;68699;48.220;16.358;2024-01-10T03:05:36;53.63;;;28.43;;
79261;SDS011;68699;48.220;16.358;2024-01-10T03:08:03;52.00;;;28.63;;
79261;SDS011;68699;48.220;16.358;2024-01-10T03:10:31;47.17;;;27.63;;
79261;SDS011;68699;48.220;16.358;2024-01-10T03:12:57;52.67;;;29.60;;
79261;SDS011;68699;48.220;16.358;2024-01-10T03:15:23;47.13;;;27.57;;
79261;SDS011;68699;48.220;16.358;2024-01-10T03:17:50;46.87;;;27.43;;
79261;SDS011;68699;48.220;16.358;2024-01-10T03:20:16;50.87;;;28.33;;
79261;SDS011;68699;48.220;16.358;2024-01-10T03:22:42;52.00;;;28.53;;
79261;SDS011;68699;48.220;16.358;2024-01-10T03:25:08;50.13;;;28.43;;
79261;SDS011;68699;48.220;16.358;2024-01-10T03:27:34;49.07;;;27.73;;
79261;SDS011;68699;48.220;16.358;2024-01-10T03:30:00;51.97;;;28.23;;
79261;SDS011;68699;48.220;16.358;2024-01-10T03:32:26;50.43;;;28.63;;
79261;SDS011;68699;48.220;16.358;2024-01-10T03:34:52;54.00;;;29.60;;
79261;SDS011;68699;48.220;16.358;2024-01-10T03:37:18;51.87;;;28.87;;
79261;SDS011;68699;48.220;16.358;2024-01-10T03:39:44;53.77;;;28.80;;
79261;SDS011;68699;48.220;16.358;2024-01-10T03:42:10;49.73;;;28.87;;
79261;SDS011;68699;48.220;16.358;2024-01-10T03:44:36;49.77;;;28.70;;
79261;SDS011;68699;48.220;16.358;2024-01-10T03:47:05;51.47;;;29.00;;
79261;SDS011;68699;48.220;16.358;2024-01-10T03:49:31;51.30;;;28.07;;
79261;SDS011;68699;48.220;16.358;2024-01-10T03:51:57;51.23;;;29.17;;
79261;SDS011;68699;48.220;16.358;2024-01-10T03:54:23;51.47;;;29.47;;
79261;SDS011;68699;48.220;16.358;2024-01-10T03:56:49;52.50;;;29.77;;
79261;SDS011;68699;48.220;16.358;2024-01-10T03:59:15;54.83;;;29.13;;
79261;SDS011;68699;48.220;16.358;2024-01-10T04:01:41;55.90;;;29.73;;
79261;SDS011;68699;48.220;16.358;2024-01-10T04:04:07;50.90;;;28.67;;
79261;SDS011;68699;48.220;16.358;2024-01-10T04:06:33;49.23;;;28.67;;
79261;SDS011;68699;48.220;16.358;2024-01-10T04:08:59;52.83;;;28.67;;
79261;SDS011;68699;48.220;16.358;2024-01-10T04:11:25;55.90;;;30.03;;
79261;SDS011;68699;48.220;16.358;2024-01-10T04:13:51;50.30;;;28.67;;
79261;SDS011;68699;48.220;16.358;2024-01-10T04:16:17;52.80;;;29.10;;
79261;SDS011;68699;48.220;16.358;2024-01-10T04:18:43;50.10;;;28.87;;
79261;SDS011;68699;48.220;16.358;2024-01-10T04:21:09;51.20;;;27.73;;
79261;SDS011;68699;48.220;16.358;2024-01-10T04:23:35;52.73;;;28.50;;
79261;SDS011;68699;48.220;16.358;2024-01-10T04:26:01;53.53;;;29.23;;
79261;SDS011;68699;48.220;16.358;2024-01-10T04:28:28;47.87;;;28.27;;
79261;SDS011;68699;48.220;16.358;2024-01-10T04:30:54;52.47;;;28.33;;
79261;SDS011;68699;48.220;16.358;2024-01-10T04:33:20;52.70;;;29.23;;
79261;SDS011;68699;48.220;16.358;2024-01-10T04:35:46;52.70;;;29.67;;
79261;SDS011;68699;48.220;16.358;2024-01-10T04:38:12;49.63;;;27.97;;
79261;SDS011;68699;48.220;16.358;2024-01-10T04:40:38;51.97;;;29.03;;
79261;SDS011;68699;48.220;16.358;2024-01-10T04:43:04;52.30;;;28.27;;
79261;SDS011;68699;48.220;16.358;2024-01-10T04:45:30;51.50;;;28.07;;
79261;SDS011;68699;48.220;16.358;2024-01-10T04:47:56;53.33;;;28.97;;
79261;SDS011;68699;48.220;16.358;2024-01-10T04:50:22;53.57;;;28.87;;
79261;SDS011;68699;48.220;16.358;2024-01-10T04:52:48;50.97;;;28.83;;
79261;SDS011;68699;48.220;16.358;2024-01-10T04:55:14;52.67;;;29.40;;
79261;SDS011;68699;48.220;16.358;2024-01-10T04:57:40;53.73;;;30.33;;
79261;SDS011;68699;48.220;16.358;2024-01-10T05:00:06;55.27;;;29.03;;
79261;SDS011;68699;48.220;16.358;2024-01-10T05:02:32;56.33;;;30.13;;
79261;SDS011;68699;48.220;16.358;2024-01-10T05:04:58;57.80;;;30.87;;
79261;SDS011;68699;48.220;16.358;2024-01-10T05:07:24;52.63;;;29.30;;
79261;SDS011;68699;48.220;16.358;2024-01-10T05:09:50;53.90;;;29.43;;
79261;SDS011;68699;48.220;16.358;2024-01-10T05:12:16;59.87;;;30.50;;
79261;SDS011;68699;48.220;16.358;2024-01-10T05:14:42;54.17;;;29.60;;
79261;SDS011;68699;48.220;16.358;2024-01-10T05:17:09;59.20;;;29.13;;
79261;SDS011;68699;48.220;16.358;2024-01-10T05:19:35;54.30;;;30.20;;
79261;SDS011;68699;48.220;16.358;2024-01-10T05:22:01;53.27;;;30.07;;
79261;SDS011;68699;48.220;16.358;2024-01-10T05:24:27;54.47;;;30.50;;
79261;SDS011;68699;48.220;16.358;2024-01-10T05:26:53;57.07;;;29.93;;
79261;SDS011;68699;48.220;16.358;2024-01-10T05:29:19;53.80;;;29.67;;
79261;SDS011;68699;48.220;16.358;2024-01-10T05:31:47;51.53;;;29.63;;
79261;SDS011;68699;48.220;16.358;2024-01-10T05:34:13;54.57;;;29.43;;
79261;SDS011;68699;48.220;16.358;2024-01-10T05:36:39;48.47;;;27.73;;
79261;SDS011;68699;48.220;16.358;2024-01-10T05:39:05;48.80;;;28.23;;
79261;SDS011;68699;48.220;16.358;2024-01-10T05:41:34;52.83;;;29.30;;
79261;SDS011;68699;48.220;16.358;2024-01-10T05:44:00;51.90;;;27.70;;
79261;SDS011;68699;48.220;16.358;2024-01-10T05:46:26;46.80;;;26.67;;
79261;SDS011;68699;48.220;16.358;2024-01-10T05:48:53;49.17;;;28.57;;
79261;SDS011;68699;48.220;16.358;2024-01-10T05:51:19;48.03;;;27.20;;
79261;SDS011;68699;48.220;16.358;2024-01-10T05:53:45;48.63;;;27.47;;
79261;SDS011;68699;48.220;16.358;2024-01-10T05:56:11;50.33;;;27.77;;
79261;SDS011;68699;48.220;16.358;2024-01-10T05:58:37;48.30;;;27.63;;
79261;SDS011;68699;48.220;16.358;2024-01-10T06:01:03;42.67;;;27.40;;
79261;SDS011;68699;48.220;16.358;2024-01-10T06:03:29;49.90;;;28.10;;
79261;SDS011;68699;48.220;16.358;2024-01-10T06:05:55;48.33;;;27.97;;
79261;SDS011;68699;48.220;16.358;2024-01-10T06:08:21;50.50;;;28.33;;
79261;SDS011;68699;48.220;16.358;2024-01-10T06:10:50;50.93;;;26.90;;
79261;SDS011;68699;48.220;16.358;2024-01-10T06:13:16;47.10;;;27.30;;
79261;SDS011;68699;48.220;16.358;2024-01-10T06:15:42;46.00;;;28.07;;
79261;SDS011;68699;48.220;16.358;2024-01-10T06:18:08;44.40;;;26.00;;
79261;SDS011;68699;48.220;16.358;2024-01-10T06:20:34;47.60;;;26.93;;
79261;SDS011;68699;48.220;16.358;2024-01-10T06:23:03;48.23;;;27.37;;
79261;SDS011;68699;48.220;16.358;2024-01-10T06:25:29;49.47;;;28.33;;
79261;SDS011;68699;48.220;16.358;2024-01-10T06:27:55;51.10;;;28.80;;
79261;SDS011;68699;48.220;16.358;2024-01-10T06:30:21;47.07;;;27.33;;
79261;SDS011;68699;48.220;16.358;2024-01-10T06:32:47;47.27;;;26.63;;
79261;SDS011;68699;48.220;16.358;2024-01-10T06:35:13;49.83;;;27.43;;
79261;SDS011;68699;48.220;16.358;2024-01-10T06:37:40;46.90;;;26.87;;
79261;SDS011;68699;48.220;16.358;2024-01-10T06:40:07;44.97;;;26.83;;
79261;SDS011;68699;48.220;16.358;2024-01-10T06:42:33;43.53;;;26.43;;
79261;SDS011;68699;48.220;16.358;2024-01-10T06:45:00;48.40;;;27.00;;
79261;SDS011;68699;48.220;16.358;2024-01-10T06:47:26;48.67;;;27.33;;
79261;SDS011;68699;48.220;16.358;2024-01-10T06:49:51;45.90;;;26.43;;
79261;SDS011;68699;48.220;16.358;2024-01-10T06:52:17;49.43;;;28.03;;
79261;SDS011;68699;48.220;16.358;2024-01-10T06:54:43;49.93;;;27.43;;
79261;SDS011;68699;48.220;16.358;2024-01-10T06:57:09;45.97;;;26.87;;
79261;SDS011;68699;48.220;16.358;2024-01-10T06:59:35;45.40;;;26.83;;
79261;SDS011;68699;48.220;16.358;2024-01-10T07:02:02;44.47;;;26.87;;
79261;SDS011;68699;48.220;16.358;2024-01-10T07:04:28;49.03;;;27.53;;
79261;SDS011;68699;48.220;16.358;2024-01-10T07:06:54;44.33;;;26.30;;
79261;SDS011;68699;48.220;16.358;2024-01-10T07:09:20;46.87;;;25.07;;
79261;SDS011;68699;48.220;16.358;2024-01-10T07:11:46;46.27;;;27.37;;
79261;SDS011;68699;48.220;16.358;2024-01-10T07:14:13;45.57;;;26.03;;
79261;SDS011;68699;48.220;16.358;2024-01-10T07:16:39;44.33;;;26.40;;
79261;SDS011;68699;48.220;16.358;2024-01-10T07:19:07;46.33;;;26.27;;
79261;SDS011;68699;48.220;16.358;2024-01-10T07:21:33;48.70;;;27.47;;
79261;SDS011;68699;48.220;16.358;2024-01-10T07:23:59;48.90;;;25.70;;
79261;SDS011;68699;48.220;16.358;2024-01-10T07:26:25;46.20;;;26.23;;
79261;SDS011;68699;48.220;16.358;2024-01-10T07:28:52;45.30;;;26.77;;
79261;SDS011;68699;48.220;16.358;2024-01-10T07:31:18;46.70;;;26.17;;
79261;SDS011;68699;48.220;16.358;2024-01-10T07:33:44;45.77;;;27.13;;
79261;SDS011;68699;48.220;16.358;2024-01-10T07:36:10;45.73;;;27.37;;
79261;SDS011;68699;48.220;16.358;2024-01-10T07:38:36;47.50;;;26.70;;
79261;SDS011;68699;48.220;16.358;2024-01-10T07:41:02;46.67;;;26.60;;
79261;SDS011;68699;48.220;16.358;2024-01-10T07:43:28;44.40;;;26.80;;
79261;SDS011;68699;48.220;16.358;2024-01-10T07:45:54;44.40;;;26.43;;
79261;SDS011;68699;48.220;16.358;2024-01-10T07:48:20;48.13;;;26.67;;
79261;SDS011;68699;48.220;16.358;2024-01-10T07:50:47;43.67;;;25.93;;
79261;SDS011;68699;48.220;16.358;2024-01-10T07:53:13;44.70;;;26.23;;
79261;SDS011;68699;48.220;16.358;2024-01-10T07:55:39;42.83;;;26.30;;
79261;SDS011;68699;48.220;16.358;2024-01-10T07:58:05;42.23;;;25.77;;
79261;SDS011;68699;48.220;16.358;2024-01-10T08:00:31;46.60;;;26.70;;
79261;SDS011;68699;48.220;16.358;2024-01-10T08:02:57;44.93;;;25.43;;
79261;SDS011;68699;48.220;16.358;2024-01-10T08:05:23;42.37;;;25.30;;
79261;SDS011;68699;48.220;16.358;2024-01-10T08:07:49;48.37;;;26.13;;
79261;SDS011;68699;48.220;16.358;2024-01-10T08:10:15;44.30;;;26.37;;
79261;SDS011;68699;48.220;16.358;2024-01-10T08:12:41;45.90;;;26.40;;
79261;SDS011;68699;48.220;16.358;2024-01-10T08:15:07;45.53;;;26.30;;
79261;SDS011;68699;48.220;16.358;2024-01-10T08:17:33;43.27;;;25.87;;
79261;SDS011;68699;48.220;16.358;2024-01-10T08:20:02;46.80;;;25.67;;
79261;SDS011;68699;48.220;16.358;2024-01-10T08:22:29;44.70;;;25.40;;
79261;SDS011;68699;48.220;16.358;2024-01-10T08:24:55;43.70;;;26.17;;
79261;SDS011;68699;48.220;16.358;2024-01-10T08:27:21;43.33;;;26.10;;
79261;SDS011;68699;48.220;16.358;2024-01-10T08:29:47;43.43;;;26.17;;
79261;SDS011;68699;48.220;16.358;2024-01-10T08:32:13;44.23;;;25.53;;
79261;SDS011;68699;48.220;16.358;2024-01-10T08:34:40;47.30;;;26.73;;
79261;SDS011;68699;48.220;16.358;2024-01-10T08:37:06;46.13;;;25.93;;
79261;SDS011;68699;48.220;16.358;2024-01-10T08:39:32;45.30;;;26.50;;
79261;SDS011;68699;48.220;16.358;2024-01-10T08:41:58;46.50;;;27.07;;
79261;SDS011;68699;48.220;16.358;2024-01-10T08:44:24;44.07;;;26.57;;
79261;SDS011;68699;48.220;16.358;2024-01-10T08:46:50;44.27;;;26.17;;
79261;SDS011;68699;48.220;16.358;2024-01-10T08:49:17;41.87;;;24.40;;
79261;SDS011;68699;48.220;16.358;2024-01-10T08:51:43;42.70;;;25.40;;
79261;SDS011;68699;48.220;16.358;2024-01-10T08:54:11;41.60;;;24.57;;
79261;SDS011;68699;48.220;16.358;2024-01-10T08:56:41;46.60;;;25.47;;
79261;SDS011;68699;48.220;16.358;2024-01-10T08:59:09;43.77;;;24.50;;
79261;SDS011;68699;48.220;16.358;2024-01-10T09:01:35;44.63;;;25.67;;
79261;SDS011;68699;48.220;16.358;2024-01-10T09:04:01;45.90;;;27.17;;
79261;SDS011;68699;48.220;16.358;2024-01-10T09:06:28;43.23;;;26.40;;
79261;SDS011;68699;48.220;16.358;2024-01-10T09:08:56;45.70;;;26.33;;
79261;SDS011;68699;48.220;16.358;2024-01-10T09:11:22;44.07;;;25.77;;
79261;SDS011;68699;48.220;16.358;2024-01-10T09:13:49;46.80;;;26.63;;
79261;SDS011;68699;48.220;16.358;2024-01-10T09:16:16;45.07;;;26.57;;
79261;SDS011;68699;48.220;16.358;2024-01-10T09:18:43;42.73;;;26.23;;
79261;SDS011;68699;48.220;16.358;2024-01-10T09:21:09;45.63;;;26.50;;
79261;SDS011;68699;48.220;16.358;2024-01-10T09:23:36;42.50;;;25.53;;
79261;SDS011;68699;48.220;16.358;2024-01-10T09:26:02;46.40;;;26.07;;
79261;SDS011;68699;48.220;16.358;2024-01-10T09:28:28;47.33;;;25.63;;
79261;SDS011;68699;48.220;16.358;2024-01-10T09:30:54;43.73;;;25.67;;
79261;SDS011;68699;48.220;16.358;2024-01-10T09:33:20;44.73;;;26.87;;
79261;SDS011;68699;48.220;16.358;2024-01-10T09:35:47;44.03;;;25.67;;
79261;SDS011;68699;48.220;16.358;2024-01-10T09:38:13;48.90;;;27.27;;
79261;SDS011;68699;48.220;16.358;2024-01-10T09:40:39;43.13;;;26.20;;
79261;SDS011;68699;48.220;16.358;2024-01-10T09:43:05;43.63;;;25.30;;
79261;SDS011;68699;48.220;16.358;2024-01-10T09:45:35;42.63;;;24.73;;
79261;SDS011;68699;48.220;16.358;2024-01-10T09:48:01;43.17;;;24.57;;
79261;SDS011;68699;48.220;16.358;2024-01-10T09:50:27;41.13;;;25.67;;
79261;SDS011;68699;48.220;16.358;2024-01-10T09:52:56;39.23;;;24.20;;
79261;SDS011;68699;48.220;16.358;2024-01-10T09:55:24;39.43;;;23.90;;
79261;SDS011;68699;48.220;16.358;2024-01-10T09:57:52;39.73;;;24.90;;
79261;SDS011;68699;48.220;16.358;2024-01-10T10:00:18;39.23;;;23.90;;
79261;SDS011;68699;48.220;16.358;2024-01-10T10:02:45;43.97;;;24.10;;
79261;SDS011;68699;48.220;16.358;2024-01-10T10:05:14;36.73;;;23.00;;
79261;SDS011;68699;48.220;16.358;2024-01-10T10:07:44;39.27;;;23.53;;
79261;SDS011;68699;48.220;16.358;2024-01-10T10:10:10;39.13;;;23.80;;
79261;SDS011;68699;48.220;16.358;2024-01-10T10:12:51;42.83;;;23.73;;
79261;SDS011;68699;48.220;16.358;2024-01-10T10:15:19;38.60;;;23.27;;
79261;SDS011;68699;48.220;16.358;2024-01-10T10:17:46;37.63;;;24.30;;
79261;SDS011;68699;48.220;16.358;2024-01-10T10:23:03;42.07;;;24.70;;
79261;SDS011;68699;48.220;16.358;2024-01-10T10:25:30;38.70;;;23.70;;
79261;SDS011;68699;48.220;16.358;2024-01-10T10:28:00;37.63;;;23.90;;
79261;SDS011;68699;48.220;16.358;2024-01-10T10:30:27;39.77;;;24.20;;
79261;SDS011;68699;48.220;16.358;2024-01-10T10:32:54;46.50;;;25.10;;
79261;SDS011;68699;48.220;16.358;2024-01-10T10:35:20;40.07;;;24.40;;
79261;SDS011;68699;48.220;16.358;2024-01-10T10:37:47;46.97;;;25.13;;
79261;SDS011;68699;48.220;16.358;2024-01-10T10:40:14;38.93;;;24.57;;
79261;SDS011;68699;48.220;16.358;2024-01-10T10:42:43;40.70;;;24.53;;
79261;SDS011;68699;48.220;16.358;2024-01-10T10:45:11;38.33;;;24.47;;
79261;SDS011;68699;48.220;16.358;2024-01-10T10:47:38;37.00;;;24.67;;
79261;SDS011;68699;48.220;16.358;2024-01-10T10:50:10;40.13;;;24.27;;
79261;SDS011;68699;48.220;16.358;2024-01-10T10:52:40;39.37;;;24.83;;
79261;SDS011;68699;48.220;16.358;2024-01-10T10:55:09;40.23;;;24.37;;
79261;SDS011;68699;48.220;16.358;2024-01-10T10:57:36;40.53;;;24.37;;
79261;SDS011;68699;48.220;16.358;2024-01-10T11:00:03;37.00;;;24.00;;
79261;SDS011;68699;48.220;16.358;2024-01-10T11:02:32;38.27;;;23.97;;
79261;SDS011;68699;48.220;16.358;2024-01-10T11:04:58;37.93;;;24.13;;
79261;SDS011;68699;48.220;16.358;2024-01-10T11:07:25;35.73;;;22.73;;
79261;SDS011;68699;48.220;16.358;2024-01-10T11:09:52;36.47;;;23.53;;
79261;SDS011;68699;48.220;16.358;2024-01-10T11:15:21;37.53;;;23.07;;
79261;SDS011;68699;48.220;16.358;2024-01-10T11:17:57;33.87;;;21.50;;
79261;SDS011;68699;48.220;16.358;2024-01-10T11:20:34;37.00;;;22.67;;
79261;SDS011;68699;48.220;16.358;2024-01-10T11:25:40;32.10;;;21.43;;
79261;SDS011;68699;48.220;16.358;2024-01-10T11:28:06;30.73;;;20.23;;
79261;SDS011;68699;48.220;16.358;2024-01-10T11:30:48;31.93;;;21.17;;
79261;SDS011;68699;48.220;16.358;2024-01-10T11:33:33;29.67;;;19.10;;
79261;SDS011;68699;48.220;16.358;2024-01-10T11:36:12;31.13;;;19.67;;
79261;SDS011;68699;48.220;16.358;2024-01-10T11:38:48;25.80;;;18.30;;
79261;SDS011;68699;48.220;16.358;2024-01-10T11:41:49;30.50;;;18.53;;
79261;SDS011;68699;48.220;16.358;2024-01-10T11:46:49;25.30;;;17.00;;
79261;SDS011;68699;48.220;16.358;2024-01-10T11:49:19;27.00;;;17.53;;
79261;SDS011;68699;48.220;16.358;2024-01-10T11:51:48;24.13;;;17.43;;
79261;SDS011;68699;48.220;16.358;2024-01-10T11:57:00;27.00;;;17.67;;
79261;SDS011;68699;48.220;16.358;2024-01-10T11:59:26;27.57;;;17.90;;
79261;SDS011;68699;48.220;16.358;2024-01-10T12:01:52;27.10;;;17.10;;
79261;SDS011;68699;48.220;16.358;2024-01-10T12:04:19;23.67;;;16.60;;
79261;SDS011;68699;48.220;16.358;2024-01-10T12:06:46;29.07;;;16.43;;
79261;SDS011;68699;48.220;16.358;2024-01-10T12:09:12;25.10;;;17.63;;
79261;SDS011;68699;48.220;16.358;2024-01-10T12:11:39;25.60;;;15.90;;
79261;SDS011;68699;48.220;16.358;2024-01-10T12:14:06;23.73;;;16.23;;
79261;SDS011;68699;48.220;16.358;2024-01-10T12:16:33;25.03;;;17.13;;
79261;SDS011;68699;48.220;16.358;2024-01-10T12:18:59;22.40;;;16.07;;
79261;SDS011;68699;48.220;16.358;2024-01-10T12:21:25;23.47;;;15.33;;
79261;SDS011;68699;48.220;16.358;2024-01-10T12:23:51;24.77;;;15.83;;
79261;SDS011;68699;48.220;16.358;2024-01-10T12:26:18;22.13;;;15.90;;
79261;SDS011;68699;48.220;16.358;2024-01-10T12:28:54;23.50;;;15.50;;
79261;SDS011;68699;48.220;16.358;2024-01-10T12:31:21;24.07;;;15.97;;
79261;SDS011;68699;48.220;16.358;2024-01-10T12:33:48;22.93;;;16.20;;
79261;SDS011;68699;48.220;16.358;2024-01-10T12:36:14;22.67;;;16.33;;
79261;SDS011;68699;48.220;16.358;2024-01-10T12:38:42;24.03;;;16.50;;
79261;SDS011;68699;48.220;16.358;2024-01-10T12:41:09;24.23;;;16.77;;
79261;SDS011;68699;48.220;16.358;2024-01-10T12:43:35;23.30;;;15.20;;
79261;SDS011;68699;48.220;16.358;2024-01-10T12:46:02;24.73;;;16.00;;
79261;SDS011;68699;48.220;16.358;2024-01-10T12:48:29;21.80;;;16.33;;
79261;SDS011;68699;48.220;16.358;2024-01-10T12:50:56;24.00;;;16.70;;
79261;SDS011;68699;48.220;16.358;2024-01-10T12:53:22;21.77;;;15.57;;
79261;SDS011;68699;48.220;16.358;2024-01-10T12:55:48;25.90;;;17.13;;
79261;SDS011;68699;48.220;16.358;2024-01-10T12:58:14;22.83;;;16.67;;
79261;SDS011;68699;48.220;16.358;2024-01-10T13:00:40;25.20;;;16.40;;
79261;SDS011;68699;48.220;16.358;2024-01-10T13:03:06;25.40;;;17.10;;
79261;SDS011;68699;48.220;16.358;2024-01-10T13:05:32;24.17;;;16.40;;
79261;SDS011;68699;48.220;16.358;2024-01-10T13:07:58;23.80;;;17.10;;
79261;SDS011;68699;48.220;16.358;2024-01-10T13:10:24;26.83;;;16.80;;
79261;SDS011;68699;48.220;16.358;2024-01-10T13:12:50;22.83;;;15.97;;
79261;SDS011;68699;48.220;16.358;2024-01-10T13:15:16;23.53;;;16.40;;
79261;SDS011;68699;48.220;16.358;2024-01-10T13:17:43;26.67;;;16.83;;
79261;SDS011;68699;48.220;16.358;2024-01-10T13:20:12;24.33;;;16.87;;
79261;SDS011;68699;48.220;16.358;2024-01-10T13:22:38;25.47;;;16.87;;
79261;SDS011;68699;48.220;16.358;2024-01-10T13:25:04;25.93;;;17.50;;
79261;SDS011;68699;48.220;16.358;2024-01-10T13:27:31;24.13;;;16.27;;
79261;SDS011;68699;48.220;16.358;2024-01-10T13:29:57;25.33;;;17.40;;
79261;SDS011;68699;48.220;16.358;2024-01-10T13:32:23;24.97;;;16.40;;
79261;SDS011;68699;48.220;16.358;2024-01-10T13:34:50;24.00;;;16.53;;
79261;SDS011;68699;48.220;16.358;2024-01-10T13:37:17;24.53;;;16.63;;
79261;SDS011;68699;48.220;16.358;2024-01-10T13:39:43;23.60;;;16.40;;
79261;SDS011;68699;48.220;16.358;2024-01-10T13:42:09;25.27;;;16.87;;
79261;SDS011;68699;48.220;16.358;2024-01-10T13:44:35;24.77;;;17.07;;
79261;SDS011;68699;48.220;16.358;2024-01-10T13:47:02;26.20;;;17.43;;
79261;SDS011;68699;48.220;16.358;2024-01-10T13:49:28;26.63;;;16.63;;
79261;SDS011;68699;48.220;16.358;2024-01-10T13:51:55;24.33;;;16.97;;
79261;SDS011;68699;48.220;16.358;2024-01-10T13:54:21;25.20;;;17.20;;
79261;SDS011;68699;48.220;16.358;2024-01-10T13:56:47;27.40;;;17.30;;
79261;SDS011;68699;48.220;16.358;2024-01-10T13:59:13;25.63;;;16.67;;
79261;SDS011;68699;48.220;16.358;2024-01-10T14:01:39;23.13;;;15.93;;
79261;SDS011;68699;48.220;16.358;2024-01-10T14:04:05;23.47;;;17.10;;
79261;SDS011;68699;48.220;16.358;2024-01-10T14:06:31;22.40;;;16.23;;
79261;SDS011;68699;48.220;16.358;2024-01-10T14:08:57;24.63;;;16.30;;
79261;SDS011;68699;48.220;16.358;2024-01-10T14:11:23;26.33;;;15.93;;
79261;SDS011;68699;48.220;16.358;2024-01-10T14:13:51;21.83;;;15.97;;
79261;SDS011;68699;48.220;16.358;2024-01-10T14:16:19;25.43;;;16.80;;
79261;SDS011;68699;48.220;16.358;2024-01-10T14:18:45;24.07;;;16.77;;
79261;SDS011;68699;48.220;16.358;2024-01-10T14:21:12;23.13;;;16.37;;
79261;SDS011;68699;48.220;16.358;2024-01-10T14:23:38;23.97;;;16.67;;